Time;durP1;ratioP1;P1;durP2;ratioP2;P2;SDS_P1;SDS_P2;PMS_P1;PMS_P2;Temp;Humidity;BMP_temperature;BMP_pressure;BME280_temperature;BME280_humidity;BME280_pressure;Samples;Min_cycle;Max_cycle;Signal;HPM_P1;HPM_P2
2021/08/19 00:02:02;;;;;;;7.78;6.10;;;;;;;;;;5094994;28;20074;-76
2021/08/19 00:04:28;;;;;;;7.38;6.70;;;;;;;;;;5095886;28;20024;-76
2021/08/19 00:06:54;;;;;;;7.60;6.22;;;;;;;;;;5096257;28;20024;-76
2021/08/19 00:09:20;;;;;;;9.63;6.43;;;;;;;;;;5096125;28;20027;-77
2021/08/19 00:11:46;;;;;;;10.70;5.97;;;;;;;;;;5094980;28;20063;-76
2021/08/19 00:14:12;;;;;;;6.85;6.03;;;;;;;;;;5096223;28;20043;-76
2021/08/19 00:16:38;;;;;;;6.40;5.70;;;;;;;;;;5096284;28;20111;-76
2021/08/19 00:19:04;;;;;;;6.20;5.53;;;;;;;;;;5095581;28;20024;-77
2021/08/19 00:21:30;;;;;;;7.05;5.93;;;;;;;;;;5094724;28;20047;-76
2021/08/19 00:23:58;;;;;;;6.80;6.00;;;;;;;;;;5096329;28;20031;-77
2021/08/19 00:26:24;;;;;;;9.85;7.82;;;;;;;;;;5096027;28;20024;-77
2021/08/19 00:28:50;;;;;;;7.43;6.05;;;;;;;;;;5095575;28;20069;-77
2021/08/19 00:31:17;;;;;;;7.05;5.57;;;;;;;;;;5094421;28;20028;-76
2021/08/19 00:33:45;;;;;;;6.63;5.93;;;;;;;;;;5095915;28;20024;-76
2021/08/19 00:36:11;;;;;;;6.72;6.03;;;;;;;;;;5095591;28;20038;-76
2021/08/19 00:38:38;;;;;;;12.23;6.95;;;;;;;;;;5095772;28;20081;-76
2021/08/19 00:41:04;;;;;;;8.45;6.45;;;;;;;;;;5094290;28;20024;-77
2021/08/19 00:43:30;;;;;;;6.95;6.30;;;;;;;;;;5096161;28;20095;-76
2021/08/19 00:45:57;;;;;;;6.20;5.60;;;;;;;;;;5095309;28;20118;-76
2021/08/19 00:48:23;;;;;;;6.38;5.35;;;;;;;;;;5095210;28;20059;-76
2021/08/19 00:50:49;;;;;;;7.05;5.82;;;;;;;;;;5094347;28;20047;-77
2021/08/19 00:53:15;;;;;;;12.40;6.07;;;;;;;;;;5095387;28;20024;-76
2021/08/19 00:55:42;;;;;;;8.98;5.32;;;;;;;;;;5095054;28;20048;-76
2021/08/19 00:58:08;;;;;;;10.27;6.63;;;;;;;;;;5095450;28;20058;-76
2021/08/19 01:00:34;;;;;;;7.88;6.65;;;;;;;;;;5094215;28;20024;-77
2021/08/19 01:03:00;;;;;;;8.57;6.25;;;;;;;;;;5095304;28;20031;-76
2021/08/19 01:05:28;;;;;;;7.90;6.53;;;;;;;;;;5094777;28;20457;-76
2021/08/19 01:07:54;;;;;;;6.13;5.50;;;;;;;;;;5094954;28;20453;-77
2021/08/19 01:10:20;;;;;;;6.60;5.93;;;;;;;;;;5093519;28;20461;-76
2021/08/19 01:12:46;;;;;;;16.77;6.13;;;;;;;;;;5095093;28;20519;-76
2021/08/19 01:15:12;;;;;;;12.52;6.53;;;;;;;;;;5094339;28;20024;-76
2021/08/19 01:17:38;;;;;;;5.50;4.97;;;;;;;;;;5094649;28;20039;-76
2021/08/19 01:20:05;;;;;;;5.93;5.25;;;;;;;;;;5093582;28;20461;-76
2021/08/19 01:22:31;;;;;;;7.18;5.70;;;;;;;;;;5095007;28;20032;-76
2021/08/19 01:24:57;;;;;;;6.22;5.57;;;;;;;;;;5094609;28;20119;-75
2021/08/19 01:27:23;;;;;;;7.07;4.80;;;;;;;;;;5094580;28;20035;-75
2021/08/19 01:29:49;;;;;;;6.30;5.70;;;;;;;;;;5093243;28;20017;-76
2021/08/19 01:32:15;;;;;;;15.88;5.25;;;;;;;;;;5094368;28;20028;-76
2021/08/19 01:34:42;;;;;;;8.82;5.05;;;;;;;;;;5094834;28;20028;-76
2021/08/19 01:37:08;;;;;;;7.88;5.20;;;;;;;;;;5094463;28;20078;-76
2021/08/19 01:39:34;;;;;;;6.65;5.70;;;;;;;;;;5094157;28;20073;-76
2021/08/19 01:42:00;;;;;;;7.90;5.78;;;;;;;;;;5093211;28;20020;-76
2021/08/19 01:44:26;;;;;;;5.75;5.03;;;;;;;;;;5094134;28;20021;-77
2021/08/19 01:46:53;;;;;;;9.05;5.82;;;;;;;;;;5094054;28;20112;-77
2021/08/19 01:49:20;;;;;;;5.97;4.93;;;;;;;;;;5094236;28;20028;-76
2021/08/19 01:51:46;;;;;;;5.63;5.13;;;;;;;;;;5093072;28;20070;-75
2021/08/19 01:54:12;;;;;;;8.48;5.05;;;;;;;;;;5094748;28;20077;-76
2021/08/19 01:56:38;;;;;;;8.32;6.00;;;;;;;;;;5094350;28;20048;-76
2021/08/19 01:59:04;;;;;;;9.90;5.47;;;;;;;;;;5094167;28;20510;-77
2021/08/19 02:01:30;;;;;;;6.47;5.22;;;;;;;;;;5092352;28;20461;-76
2021/08/19 02:03:56;;;;;;;4.85;4.35;;;;;;;;;;5094349;28;20017;-76
2021/08/19 02:06:22;;;;;;;5.45;4.95;;;;;;;;;;5093802;28;20032;-76
2021/08/19 02:08:48;;;;;;;7.43;5.18;;;;;;;;;;5093914;28;20399;-76
2021/08/19 02:11:14;;;;;;;8.18;4.18;;;;;;;;;;5092408;28;20021;-76
2021/08/19 02:13:41;;;;;;;6.57;5.40;;;;;;;;;;5094382;28;20021;-76
2021/08/19 02:16:07;;;;;;;5.32;4.80;;;;;;;;;;5093202;28;20036;-77
2021/08/19 02:18:33;;;;;;;11.18;5.05;;;;;;;;;;5094122;28;20020;-76
2021/08/19 02:20:59;;;;;;;5.32;4.78;;;;;;;;;;5092525;28;20028;-76
2021/08/19 02:23:25;;;;;;;8.30;4.47;;;;;;;;;;5093818;28;20020;-76
2021/08/19 02:25:51;;;;;;;6.10;5.50;;;;;;;;;;5093566;28;20020;-76
2021/08/19 02:28:17;;;;;;;10.05;4.40;;;;;;;;;;5093695;28;20059;-76
2021/08/19 02:30:43;;;;;;;4.95;4.43;;;;;;;;;;5091715;28;20028;-77
2021/08/19 02:33:09;;;;;;;6.35;4.32;;;;;;;;;;5093657;28;20453;-76
2021/08/19 02:35:35;;;;;;;5.97;3.67;;;;;;;;;;5093395;28;20472;-76
2021/08/19 02:38:01;;;;;;;4.38;3.97;;;;;;;;;;5093551;28;20016;-76
2021/08/19 02:40:28;;;;;;;6.50;4.28;;;;;;;;;;5092135;28;20032;-76
2021/08/19 02:42:54;;;;;;;5.50;4.65;;;;;;;;;;5093927;28;20020;-76
2021/08/19 02:45:20;;;;;;;6.97;4.18;;;;;;;;;;5092823;28;20030;-76
2021/08/19 02:47:46;;;;;;;10.13;5.18;;;;;;;;;;5093474;28;20114;-76
2021/08/19 02:50:12;;;;;;;4.80;4.30;;;;;;;;;;5091755;28;20050;-76
2021/08/19 02:52:38;;;;;;;6.45;4.45;;;;;;;;;;5093521;28;20488;-76
2021/08/19 02:55:05;;;;;;;5.28;4.40;;;;;;;;;;5092909;28;20362;-78
2021/08/19 02:57:31;;;;;;;6.32;5.72;;;;;;;;;;5093604;28;20046;-76
2021/08/19 02:59:57;;;;;;;34.95;5.95;;;;;;;;;;5091731;28;20245;-75
2021/08/19 03:02:23;;;;;;;5.18;4.53;;;;;;;;;;5093598;28;20028;-76
2021/08/19 03:04:49;;;;;;;8.68;5.43;;;;;;;;;;5093602;28;20036;-76
2021/08/19 03:07:16;;;;;;;5.50;4.53;;;;;;;;;;5092592;28;20031;-76
2021/08/19 03:09:42;;;;;;;5.30;4.72;;;;;;;;;;5092241;28;20024;-77
2021/08/19 03:12:08;;;;;;;4.93;4.35;;;;;;;;;;5093369;28;20423;-75
2021/08/19 03:14:34;;;;;;;5.28;4.53;;;;;;;;;;5093029;28;20362;-76
2021/08/19 03:17:00;;;;;;;8.00;4.90;;;;;;;;;;5092669;28;20368;-75
2021/08/19 03:19:26;;;;;;;11.52;6.65;;;;;;;;;;5093190;28;20086;-75
2021/08/19 03:21:52;;;;;;;11.93;6.95;;;;;;;;;;5091703;28;20480;-75
2021/08/19 03:24:18;;;;;;;10.18;6.97;;;;;;;;;;5093321;28;20393;-76
2021/08/19 03:26:44;;;;;;;15.48;6.63;;;;;;;;;;5092622;28;20056;-76
2021/08/19 03:29:11;;;;;;;11.15;6.93;;;;;;;;;;5092557;28;20097;-76
2021/08/19 03:31:37;;;;;;;12.65;7.00;;;;;;;;;;5091707;28;20355;-76
2021/08/19 03:34:03;;;;;;;18.48;8.20;;;;;;;;;;5093806;28;20032;-76
2021/08/19 03:36:29;;;;;;;14.10;8.77;;;;;;;;;;5092908;28;20032;-76
2021/08/19 03:38:55;;;;;;;13.43;8.38;;;;;;;;;;5092991;28;20456;-76
2021/08/19 03:41:21;;;;;;;17.02;8.32;;;;;;;;;;5091544;28;20029;-76
2021/08/19 03:43:47;;;;;;;18.40;7.65;;;;;;;;;;5092989;28;20035;-77
2021/08/19 03:46:14;;;;;;;19.15;8.45;;;;;;;;;;5092503;28;20039;-76
2021/08/19 03:48:40;;;;;;;14.20;8.25;;;;;;;;;;5092710;28;20479;-76
2021/08/19 03:51:07;;;;;;;19.60;9.80;;;;;;;;;;5091337;28;20032;-76
2021/08/19 03:53:35;;;;;;;16.98;9.07;;;;;;;;;;5093429;28;20103;-76
2021/08/19 03:56:01;;;;;;;17.48;9.23;;;;;;;;;;5092337;28;20532;-76
2021/08/19 03:58:27;;;;;;;17.75;9.52;;;;;;;;;;5092689;28;20128;-76
2021/08/19 04:00:53;;;;;;;15.38;8.00;;;;;;;;;;5091611;28;20025;-76
2021/08/19 04:03:19;;;;;;;21.35;9.32;;;;;;;;;;5095346;28;20020;-76
2021/08/19 04:05:45;;;;;;;15.50;8.48;;;;;;;;;;5096185;28;20492;-75
2021/08/19 04:08:11;;;;;;;19.85;8.63;;;;;;;;;;5096288;28;20024;-75
2021/08/19 04:10:37;;;;;;;12.80;8.35;;;;;;;;;;5094976;28;20056;-75
2021/08/19 04:13:03;;;;;;;11.10;7.68;;;;;;;;;;5096273;28;20031;-82
2021/08/19 04:15:29;;;;;;;14.82;7.65;;;;;;;;;;5096290;28;20040;-76
2021/08/19 04:17:55;;;;;;;14.50;6.97;;;;;;;;;;5096380;28;20071;-75
2021/08/19 04:20:23;;;;;;;16.38;8.13;;;;;;;;;;5094888;28;20052;-75
2021/08/19 04:22:49;;;;;;;14.63;9.07;;;;;;;;;;5096638;28;20342;-75
2021/08/19 04:25:15;;;;;;;14.60;7.80;;;;;;;;;;5095887;28;20056;-76
2021/08/19 04:27:41;;;;;;;14.68;8.05;;;;;;;;;;5095180;28;20024;-77
2021/08/19 04:30:07;;;;;;;15.00;7.82;;;;;;;;;;5094253;28;20024;-81
2021/08/19 04:32:33;;;;;;;15.63;8.73;;;;;;;;;;5096644;28;20122;-77
2021/08/19 04:35:00;;;;;;;15.00;8.82;;;;;;;;;;5096349;28;20028;-72
2021/08/19 04:37:26;;;;;;;18.92;7.47;;;;;;;;;;5096444;28;20485;-73
2021/08/19 04:39:52;;;;;;;16.08;7.85;;;;;;;;;;5095318;28;20020;-83
2021/08/19 04:42:18;;;;;;;12.23;7.43;;;;;;;;;;5096467;28;20085;-76
2021/08/19 04:44:44;;;;;;;8.98;6.60;;;;;;;;;;5096344;28;20093;-77
2021/08/19 04:47:10;;;;;;;13.32;7.70;;;;;;;;;;5096326;28;20020;-76
2021/08/19 04:49:36;;;;;;;8.93;6.50;;;;;;;;;;5096847;28;20031;-74
2021/08/19 04:52:02;;;;;;;13.10;7.43;;;;;;;;;;5094945;28;20556;-78
2021/08/19 04:54:28;;;;;;;14.63;7.68;;;;;;;;;;5096277;28;20047;-82
2021/08/19 04:56:54;;;;;;;10.15;6.97;;;;;;;;;;5097120;28;20433;-81
2021/08/19 04:59:20;;;;;;;13.73;7.15;;;;;;;;;;5095738;28;20024;-74
2021/08/19 05:01:46;;;;;;;12.48;7.07;;;;;;;;;;5094587;28;20028;-75
2021/08/19 05:04:12;;;;;;;10.98;6.72;;;;;;;;;;5096402;28;20020;-73
2021/08/19 05:06:39;;;;;;;10.45;7.28;;;;;;;;;;5095572;28;20465;-73
2021/08/19 05:09:05;;;;;;;9.40;6.50;;;;;;;;;;5095356;28;20485;-72
2021/08/19 05:11:31;;;;;;;11.20;6.53;;;;;;;;;;5094369;28;20025;-75
2021/08/19 05:13:59;;;;;;;9.43;5.80;;;;;;;;;;5095802;28;20065;-74
2021/08/19 05:16:25;;;;;;;10.15;6.50;;;;;;;;;;5095816;28;20043;-74
2021/08/19 05:18:51;;;;;;;9.13;6.65;;;;;;;;;;5097498;28;20032;-73
2021/08/19 05:21:17;;;;;;;12.25;6.95;;;;;;;;;;5094310;28;20024;-75
2021/08/19 05:23:43;;;;;;;10.25;6.47;;;;;;;;;;5096010;28;20059;-74
2021/08/19 05:26:10;;;;;;;13.48;7.78;;;;;;;;;;5095969;28;20020;-74
2021/08/19 05:28:41;;;;;;;12.43;7.07;;;;;;;;;;5096193;28;20020;-77
2021/08/19 05:31:08;;;;;;;8.35;6.43;;;;;;;;;;5093895;28;20035;-78
2021/08/19 05:33:35;;;;;;;12.05;5.60;;;;;;;;;;5095766;28;20115;-75
2021/08/19 05:36:01;;;;;;;9.35;6.32;;;;;;;;;;5095021;28;20481;-76
2021/08/19 05:38:27;;;;;;;17.55;6.38;;;;;;;;;;5094835;28;20433;-78
2021/08/19 05:40:53;;;;;;;10.10;6.15;;;;;;;;;;5093780;28;20020;-75
2021/08/19 05:43:21;;;;;;;9.48;5.82;;;;;;;;;;5094627;28;20051;-75
2021/08/19 05:45:47;;;;;;;10.25;6.18;;;;;;;;;;5095713;28;20055;-74
2021/08/19 05:48:13;;;;;;;14.13;6.38;;;;;;;;;;5095205;28;20081;-74
2021/08/19 05:50:39;;;;;;;8.30;5.32;;;;;;;;;;5093396;28;20028;-75
2021/08/19 05:53:07;;;;;;;11.93;6.63;;;;;;;;;;5094818;28;20034;-75
2021/08/19 05:55:33;;;;;;;13.13;6.25;;;;;;;;;;5095091;28;20044;-77
2021/08/19 05:58:00;;;;;;;9.48;5.28;;;;;;;;;;5095455;28;20053;-75
2021/08/19 06:00:26;;;;;;;14.13;6.47;;;;;;;;;;5093450;28;20385;-77
2021/08/19 06:02:52;;;;;;;6.22;5.50;;;;;;;;;;5094966;28;20024;-75
2021/08/19 06:05:18;;;;;;;10.98;5.55;;;;;;;;;;5094472;28;20040;-76
2021/08/19 06:07:44;;;;;;;13.30;5.45;;;;;;;;;;5094717;28;20042;-76
2021/08/19 06:10:10;;;;;;;10.88;5.65;;;;;;;;;;5093388;28;20020;-80
2021/08/19 06:12:37;;;;;;;9.40;6.60;;;;;;;;;;5094299;28;20028;-76
2021/08/19 06:15:03;;;;;;;12.70;6.82;;;;;;;;;;5094472;28;20461;-75
2021/08/19 06:17:29;;;;;;;9.70;5.20;;;;;;;;;;5094591;28;20024;-79
2021/08/19 06:19:55;;;;;;;12.80;6.38;;;;;;;;;;5093860;28;20032;-80
2021/08/19 06:22:21;;;;;;;12.52;6.63;;;;;;;;;;5094519;28;20095;-75
2021/08/19 06:24:47;;;;;;;5.82;5.00;;;;;;;;;;5093995;28;20085;-77
2021/08/19 06:27:13;;;;;;;11.85;5.65;;;;;;;;;;5093895;28;20024;-76
2021/08/19 06:29:39;;;;;;;11.00;5.82;;;;;;;;;;5094344;28;20419;-78
2021/08/19 06:32:07;;;;;;;12.30;5.68;;;;;;;;;;5094149;28;20031;-75
2021/08/19 06:34:34;;;;;;;7.70;5.05;;;;;;;;;;5094190;28;20089;-76
2021/08/19 06:37:00;;;;;;;7.93;4.80;;;;;;;;;;5094166;28;20085;-76
2021/08/19 06:39:26;;;;;;;36.85;6.10;;;;;;;;;;5094460;28;20246;-76
2021/08/19 06:41:52;;;;;;;10.52;6.03;;;;;;;;;;5092354;28;20032;-75
2021/08/19 06:44:18;;;;;;;12.52;5.57;;;;;;;;;;5093779;28;20110;-76
2021/08/19 06:46:45;;;;;;;13.85;5.60;;;;;;;;;;5093784;28;20024;-76
2021/08/19 06:49:11;;;;;;;11.60;5.47;;;;;;;;;;5088728;28;20031;-75
2021/08/19 06:51:37;;;;;;;15.88;5.65;;;;;;;;;;5092968;28;20381;-77
2021/08/19 06:54:04;;;;;;;10.20;6.65;;;;;;;;;;5093815;28;20024;-75
2021/08/19 06:56:30;;;;;;;15.18;6.47;;;;;;;;;;5092843;28;20058;-75
2021/08/19 06:58:56;;;;;;;9.48;5.07;;;;;;;;;;5094043;28;20027;-74
2021/08/19 07:01:22;;;;;;;8.77;4.85;;;;;;;;;;5093522;28;20107;-75
2021/08/19 07:03:48;;;;;;;11.60;5.80;;;;;;;;;;5094243;28;20024;-76
2021/08/19 07:06:15;;;;;;;9.52;5.35;;;;;;;;;;5094603;28;20028;-75
2021/08/19 07:08:41;;;;;;;7.75;5.07;;;;;;;;;;5094738;28;20414;-73
2021/08/19 07:11:07;;;;;;;8.25;5.20;;;;;;;;;;5093952;28;20100;-72
2021/08/19 07:13:33;;;;;;;10.02;4.07;;;;;;;;;;5092468;28;20488;-72
2021/08/19 07:15:59;;;;;;;8.02;5.78;;;;;;;;;;5094103;28;20036;-73
2021/08/19 07:18:25;;;;;;;6.72;4.60;;;;;;;;;;5094268;28;20580;-73
2021/08/19 07:20:53;;;;;;;5.22;4.65;;;;;;;;;;5088284;28;20346;-74
2021/08/19 07:23:19;;;;;;;5.90;4.40;;;;;;;;;;5091790;28;20107;-75
2021/08/19 07:25:46;;;;;;;10.70;4.60;;;;;;;;;;5092761;28;20104;-74
2021/08/19 07:28:12;;;;;;;6.38;4.65;;;;;;;;;;5093098;28;20385;-73
2021/08/19 07:30:38;;;;;;;5.00;4.50;;;;;;;;;;5093161;28;20104;-73
2021/08/19 07:33:04;;;;;;;6.63;4.25;;;;;;;;;;5091503;28;20424;-74
2021/08/19 07:35:31;;;;;;;7.60;4.13;;;;;;;;;;5092907;28;20103;-75
2021/08/19 07:37:57;;;;;;;5.63;3.78;;;;;;;;;;5095199;28;20070;-75
2021/08/19 07:40:25;;;;;;;6.40;4.78;;;;;;;;;;5096128;28;20498;-74
2021/08/19 07:42:51;;;;;;;11.65;4.82;;;;;;;;;;5094655;28;20852;-74
2021/08/19 07:45:17;;;;;;;5.30;3.95;;;;;;;;;;5095236;28;20059;-75
2021/08/19 07:47:43;;;;;;;5.18;4.05;;;;;;;;;;5096836;28;20020;-74
2021/08/19 07:50:09;;;;;;;6.13;3.97;;;;;;;;;;5097765;28;20031;-77
2021/08/19 07:52:37;;;;;;;4.75;4.28;;;;;;;;;;5096445;28;20111;-78
2021/08/19 07:55:03;;;;;;;5.72;4.35;;;;;;;;;;5097001;28;20109;-75
2021/08/19 07:57:39;;;;;;;8.13;4.30;;;;;;;;;;5097756;28;20027;-81
2021/08/19 08:00:05;;;;;;;5.03;4.00;;;;;;;;;;5099697;28;20021;-81
2021/08/19 08:02:31;;;;;;;6.03;4.28;;;;;;;;;;5096970;28;20472;-75
2021/08/19 08:04:59;;;;;;;5.40;4.30;;;;;;;;;;5096443;28;20040;-78
2021/08/19 08:07:25;;;;;;;6.18;3.92;;;;;;;;;;5096363;28;20024;-76
2021/08/19 08:09:51;;;;;;;5.65;4.32;;;;;;;;;;5096793;28;20056;-75
2021/08/19 08:12:17;;;;;;;6.43;4.10;;;;;;;;;;5096091;28;20082;-75
2021/08/19 08:14:43;;;;;;;6.60;3.38;;;;;;;;;;5098958;28;20106;-78
2021/08/19 08:17:09;;;;;;;4.90;3.60;;;;;;;;;;5097358;28;20020;-78
2021/08/19 08:19:37;;;;;;;7.20;4.13;;;;;;;;;;5098334;28;20020;-76
2021/08/19 08:22:03;;;;;;;4.90;4.05;;;;;;;;;;5096207;28;20031;-75
2021/08/19 08:24:30;;;;;;;7.32;4.55;;;;;;;;;;5096900;28;20020;-75
2021/08/19 08:26:56;;;;;;;3.90;3.50;;;;;;;;;;5096802;28;20115;-74
2021/08/19 08:29:22;;;;;;;5.88;4.45;;;;;;;;;;5095587;28;20024;-75
2021/08/19 08:31:49;;;;;;;4.45;3.80;;;;;;;;;;5095139;28;20032;-73
2021/08/19 08:34:15;;;;;;;5.30;3.95;;;;;;;;;;5094534;28;20028;-75
2021/08/19 08:36:42;;;;;;;10.30;4.55;;;;;;;;;;5096506;28;20028;-76
2021/08/19 08:39:10;;;;;;;10.98;3.58;;;;;;;;;;5096227;28;20043;-73
2021/08/19 08:41:36;;;;;;;8.38;4.47;;;;;;;;;;5094755;28;20035;-77
2021/08/19 08:44:03;;;;;;;11.35;5.55;;;;;;;;;;5094402;28;20488;-78
2021/08/19 08:46:30;;;;;;;6.22;4.32;;;;;;;;;;5096100;28;20024;-76
2021/08/19 08:48:56;;;;;;;6.30;4.22;;;;;;;;;;5095830;28;20020;-77
2021/08/19 08:51:22;;;;;;;10.02;5.75;;;;;;;;;;5095778;28;20469;-81
2021/08/19 08:53:49;;;;;;;6.93;4.72;;;;;;;;;;5096636;28;20508;-76
2021/08/19 08:56:15;;;;;;;11.88;5.03;;;;;;;;;;5096203;28;20051;-78
2021/08/19 08:58:41;;;;;;;12.10;5.07;;;;;;;;;;5098163;28;20067;-78
2021/08/19 09:01:07;;;;;;;7.50;4.68;;;;;;;;;;5097272;28;20024;-76
2021/08/19 09:03:34;;;;;;;5.32;4.82;;;;;;;;;;5093150;28;20119;-79
2021/08/19 09:06:01;;;;;;;5.63;4.95;;;;;;;;;;5095336;28;20492;-81
2021/08/19 09:08:27;;;;;;;5.70;4.65;;;;;;;;;;5096259;28;20079;-76
2021/08/19 09:10:55;;;;;;;9.35;5.32;;;;;;;;;;5096083;28;20101;-76
2021/08/19 09:13:23;;;;;;;7.85;4.95;;;;;;;;;;5093075;28;20373;-75
2021/08/19 09:15:50;;;;;;;8.35;5.50;;;;;;;;;;5095496;28;20432;-74
2021/08/19 09:18:32;;;;;;;18.02;4.95;;;;;;;;;;5095390;28;20385;-74
2021/08/19 09:20:58;;;;;;;5.30;4.28;;;;;;;;;;5095617;28;20160;-76
2021/08/19 09:23:24;;;;;;;6.20;4.38;;;;;;;;;;5092521;28;20115;-77
2021/08/19 09:25:50;;;;;;;6.28;4.18;;;;;;;;;;5095406;28;20024;-74
2021/08/19 09:28:18;;;;;;;5.53;4.07;;;;;;;;;;5095072;28;20103;-75
2021/08/19 09:30:46;;;;;;;5.45;4.38;;;;;;;;;;5094937;28;20481;-78
2021/08/19 09:33:12;;;;;;;5.75;4.07;;;;;;;;;;5092952;28;20119;-75
2021/08/19 09:35:38;;;;;;;9.30;5.05;;;;;;;;;;5095098;28;20048;-75
2021/08/19 09:38:05;;;;;;;5.25;4.18;;;;;;;;;;5095018;28;20020;-74
2021/08/19 09:40:32;;;;;;;8.82;4.13;;;;;;;;;;5095235;28;20025;-75
2021/08/19 09:42:58;;;;;;;11.57;4.20;;;;;;;;;;5094383;28;20116;-74
2021/08/19 09:45:24;;;;;;;8.02;4.00;;;;;;;;;;5094309;28;20043;-77
2021/08/19 09:47:50;;;;;;;7.68;3.72;;;;;;;;;;5094208;28;20016;-75
2021/08/19 09:50:17;;;;;;;7.00;4.78;;;;;;;;;;5094964;28;20024;-75
2021/08/19 09:52:44;;;;;;;5.82;3.63;;;;;;;;;;5094878;28;20464;-75
2021/08/19 09:55:30;;;;;;;5.43;3.60;;;;;;;;;;5091363;28;20044;-81
2021/08/19 09:57:57;;;;;;;7.57;3.70;;;;;;;;;;5093176;28;20031;-73
2021/08/19 10:00:26;;;;;;;2.95;2.60;;;;;;;;;;5093537;28;20054;-73
2021/08/19 10:02:53;;;;;;;4.25;3.58;;;;;;;;;;5094816;28;20028;-73
2021/08/19 10:05:19;;;;;;;3.42;3.13;;;;;;;;;;5094601;28;20020;-79
2021/08/19 10:07:45;;;;;;;4.15;3.42;;;;;;;;;;5093225;28;20031;-76
2021/08/19 10:10:11;;;;;;;5.32;3.38;;;;;;;;;;5094696;28;20024;-76
2021/08/19 10:12:40;;;;;;;4.05;3.50;;;;;;;;;;5094753;28;20024;-81
2021/08/19 10:15:06;;;;;;;3.70;3.30;;;;;;;;;;5094884;28;20096;-77
2021/08/19 10:17:32;;;;;;;5.53;3.67;;;;;;;;;;5093610;28;20484;-74
2021/08/19 10:19:58;;;;;;;3.60;3.22;;;;;;;;;;5094639;28;20045;-75
2021/08/19 10:22:25;;;;;;;4.38;3.97;;;;;;;;;;5094676;28;20386;-76
2021/08/19 10:24:52;;;;;;;14.23;3.53;;;;;;;;;;5094224;28;20107;-74
2021/08/19 10:27:20;;;;;;;4.63;3.33;;;;;;;;;;5092866;28;20020;-78
2021/08/19 10:29:48;;;;;;;4.05;3.33;;;;;;;;;;5095135;28;20024;-79
2021/08/19 10:32:36;;;;;;;9.32;3.10;;;;;;;;;;5095880;28;20024;-76
2021/08/19 10:35:04;;;;;;;3.35;3.05;;;;;;;;;;5094476;28;20036;-75
2021/08/19 10:37:50;;;;;;;4.35;3.25;;;;;;;;;;5093713;28;20139;-74
2021/08/19 10:40:36;;;;;;;3.10;2.58;;;;;;;;;;5094172;28;20043;-75
2021/08/19 10:43:22;;;;;;;7.18;3.20;;;;;;;;;;5093351;28;20024;-74
2021/08/19 10:45:48;;;;;;;6.22;3.03;;;;;;;;;;5091470;28;20165;-75
2021/08/19 10:48:21;;;;;;;4.50;3.33;;;;;;;;;;5094188;28;20024;-76
2021/08/19 10:50:47;;;;;;;3.97;3.58;;;;;;;;;;5094340;28;20060;-74
2021/08/19 10:53:14;;;;;;;4.13;3.17;;;;;;;;;;5094054;28;20024;-83
2021/08/19 10:55:56;;;;;;;3.40;3.10;;;;;;;;;;5094137;28;20055;-80
2021/08/19 10:58:42;;;;;;;4.05;3.67;;;;;;;;;;5073877;28;20474;-83
2021/08/19 11:01:24;;;;;;;4.80;3.25;;;;;;;;;;5072383;28;20539;-74
2021/08/19 11:03:51;;;;;;;8.90;3.10;;;;;;;;;;5073557;28;20083;-74
2021/08/19 11:06:19;;;;;;;3.92;3.00;;;;;;;;;;5073431;28;20107;-74
2021/08/19 11:08:46;;;;;;;3.67;3.00;;;;;;;;;;5073473;28;20029;-74
2021/08/19 11:11:13;;;;;;;9.30;3.42;;;;;;;;;;5074422;28;20016;-75
2021/08/19 11:13:40;;;;;;;11.75;4.35;;;;;;;;;;5097321;28;20032;-77
2021/08/19 11:16:07;;;;;;;7.32;3.40;;;;;;;;;;5098415;28;20036;-75
2021/08/19 11:18:34;;;;;;;7.47;3.90;;;;;;;;;;5093978;28;20378;-77
2021/08/19 11:21:00;;;;;;;5.80;3.03;;;;;;;;;;5097892;28;20028;-78
2021/08/19 11:23:30;;;;;;;4.93;3.65;;;;;;;;;;5097892;28;20035;-78
2021/08/19 11:26:00;;;;;;;4.95;2.78;;;;;;;;;;5096418;28;20112;-80
2021/08/19 11:28:31;;;;;;;4.50;3.47;;;;;;;;;;5097944;28;20031;-76
2021/08/19 11:30:57;;;;;;;4.38;2.97;;;;;;;;;;5098742;28;20024;-75
2021/08/19 11:33:24;;;;;;;3.22;2.97;;;;;;;;;;5096994;28;20143;-75
2021/08/19 11:35:51;;;;;;;3.63;3.33;;;;;;;;;;5094427;28;20028;-75
2021/08/19 11:38:18;;;;;;;4.57;2.92;;;;;;;;;;5095677;28;20545;-76
2021/08/19 11:40:45;;;;;;;5.07;3.78;;;;;;;;;;5096522;28;20020;-75
2021/08/19 11:43:20;;;;;;;3.17;2.88;;;;;;;;;;5096365;28;20030;-75
2021/08/19 11:45:46;;;;;;;3.03;2.70;;;;;;;;;;5095792;28;20036;-76
2021/08/19 11:48:12;;;;;;;4.07;3.40;;;;;;;;;;5096010;28;20107;-77
2021/08/19 11:50:38;;;;;;;2.90;2.60;;;;;;;;;;5097259;28;20059;-75
2021/08/19 11:53:04;;;;;;;6.57;3.28;;;;;;;;;;5095947;28;20020;-76
2021/08/19 11:55:31;;;;;;;4.15;3.70;;;;;;;;;;5095266;28;20052;-76
2021/08/19 11:58:17;;;;;;;3.63;2.95;;;;;;;;;;5096945;28;20041;-79
2021/08/19 12:01:01;;;;;;;7.35;3.53;;;;;;;;;;5096821;28;20350;-85
2021/08/19 12:03:27;;;;;;;3.92;2.85;;;;;;;;;;5096977;28;20461;-80
2021/08/19 12:06:13;;;;;;;4.18;3.00;;;;;;;;;;5095914;28;20024;-92
2021/08/19 12:08:40;;;;;;;4.45;3.45;;;;;;;;;;5096245;28;20020;-84
2021/08/19 12:11:07;;;;;;;2.90;2.55;;;;;;;;;;5096508;28;20024;-85
2021/08/19 12:13:34;;;;;;;5.03;3.13;;;;;;;;;;5098311;28;20035;-88
2021/08/19 12:16:00;;;;;;;3.78;3.38;;;;;;;;;;5097123;28;20111;-91
2021/08/19 12:18:26;;;;;;;3.90;2.92;;;;;;;;;;5097419;28;20016;-87
2021/08/19 12:20:53;;;;;;;3.45;2.70;;;;;;;;;;5097639;28;20062;-91
2021/08/19 12:23:23;;;;;;;4.05;3.13;;;;;;;;;;5096850;28;20028;-79
2021/08/19 12:25:49;;;;;;;3.47;2.78;;;;;;;;;;5096096;28;20024;-89
2021/08/19 12:28:16;;;;;;;3.85;3.45;;;;;;;;;;5097194;28;20028;-86
2021/08/19 12:30:59;;;;;;;4.18;2.90;;;;;;;;;;5096729;28;20441;-86
2021/08/19 12:33:29;;;;;;;4.28;3.55;;;;;;;;;;5096734;28;20413;-81
2021/08/19 12:36:15;;;;;;;3.08;2.75;;;;;;;;;;5095425;28;20092;-81
2021/08/19 12:38:41;;;;;;;4.50;2.95;;;;;;;;;;5097157;28;20024;-82
2021/08/19 12:41:15;;;;;;;5.00;3.47;;;;;;;;;;5096317;28;20052;-83
2021/08/19 12:43:41;;;;;;;3.50;3.20;;;;;;;;;;5097297;28;20032;-80
2021/08/19 12:46:07;;;;;;;3.83;3.42;;;;;;;;;;5095498;28;20020;-82
2021/08/19 12:48:35;;;;;;;3.42;3.10;;;;;;;;;;5097149;28;20103;-80
2021/08/19 12:51:16;;;;;;;3.50;3.10;;;;;;;;;;5096586;28;20028;-80
2021/08/19 12:54:16;;;;;;;3.80;2.97;;;;;;;;;;5102218;28;20078;-77
2021/08/19 12:56:52;;;;;;;4.40;3.15;;;;;;;;;;5092538;28;20048;-76
2021/08/19 12:59:18;;;;;;;4.80;3.58;;;;;;;;;;5095753;28;20393;-78
2021/08/19 13:01:44;;;;;;;2.78;2.58;;;;;;;;;;5096381;28;20461;-79
2021/08/19 13:04:10;;;;;;;3.30;2.85;;;;;;;;;;5095819;28;20483;-80
2021/08/19 13:06:36;;;;;;;4.10;2.95;;;;;;;;;;5094945;28;20051;-77
2021/08/19 13:09:02;;;;;;;3.35;2.78;;;;;;;;;;5095597;28;20020;-76
2021/08/19 13:11:28;;;;;;;3.22;2.47;;;;;;;;;;5095043;28;20024;-78
2021/08/19 13:13:54;;;;;;;3.42;3.13;;;;;;;;;;5095506;28;20039;-78
2021/08/19 13:16:20;;;;;;;7.15;2.80;;;;;;;;;;5095234;28;20028;-80
2021/08/19 13:18:46;;;;;;;3.92;2.65;;;;;;;;;;5095009;28;20024;-77
2021/08/19 13:21:12;;;;;;;3.00;2.40;;;;;;;;;;5095002;28;20081;-78
2021/08/19 13:23:38;;;;;;;2.90;2.53;;;;;;;;;;5095831;28;20059;-76
2021/08/19 13:26:05;;;;;;;6.93;3.10;;;;;;;;;;5095094;28;20029;-75
2021/08/19 13:28:31;;;;;;;13.32;2.33;;;;;;;;;;5095397;28;20024;-79
2021/08/19 13:30:57;;;;;;;14.68;2.75;;;;;;;;;;5095337;28;20048;-73
2021/08/19 13:33:23;;;;;;;2.85;2.28;;;;;;;;;;5094676;28;20024;-74
2021/08/19 13:35:49;;;;;;;4.22;2.80;;;;;;;;;;5094119;28;20401;-73
2021/08/19 13:38:15;;;;;;;4.35;2.92;;;;;;;;;;5095000;28;20020;-75
2021/08/19 13:40:42;;;;;;;3.05;2.60;;;;;;;;;;5094799;28;20035;-73
2021/08/19 13:43:08;;;;;;;2.97;2.60;;;;;;;;;;5094716;28;20024;-75
2021/08/19 13:45:34;;;;;;;3.63;2.65;;;;;;;;;;5091898;28;20028;-75
2021/08/19 13:48:01;;;;;;;2.85;2.55;;;;;;;;;;5093975;28;20368;-73
2021/08/19 13:50:27;;;;;;;16.65;2.60;;;;;;;;;;5093290;28;20523;-74
2021/08/19 13:52:53;;;;;;;8.52;3.05;;;;;;;;;;5094045;28;20407;-75
2021/08/19 13:55:19;;;;;;;2.65;2.38;;;;;;;;;;5093858;28;20048;-72
2021/08/19 13:57:45;;;;;;;21.60;3.40;;;;;;;;;;5094801;28;20097;-74
2021/08/19 14:00:11;;;;;;;3.40;2.88;;;;;;;;;;5092828;28;20038;-75
2021/08/19 14:02:37;;;;;;;4.50;2.88;;;;;;;;;;5094531;28;20406;-78
2021/08/19 14:05:04;;;;;;;4.50;2.63;;;;;;;;;;5094335;28;20055;-75
2021/08/19 14:07:30;;;;;;;17.23;2.65;;;;;;;;;;5094226;28;20082;-75
2021/08/19 14:09:56;;;;;;;5.63;2.17;;;;;;;;;;5092629;28;20016;-81
2021/08/19 14:12:22;;;;;;;5.53;2.85;;;;;;;;;;5093710;28;20028;-77
2021/08/19 14:14:48;;;;;;;6.22;2.58;;;;;;;;;;5094564;28;20024;-76
2021/08/19 14:17:14;;;;;;;9.48;2.95;;;;;;;;;;5093807;28;20028;-77
2021/08/19 14:19:40;;;;;;;17.55;2.78;;;;;;;;;;5093972;28;20023;-75
2021/08/19 14:22:06;;;;;;;20.70;3.10;;;;;;;;;;5094718;28;20020;-77
2021/08/19 14:24:32;;;;;;;13.73;2.92;;;;;;;;;;5094415;28;20031;-76
2021/08/19 14:26:59;;;;;;;7.18;3.20;;;;;;;;;;5094137;28;20032;-75
2021/08/19 14:29:25;;;;;;;4.70;2.90;;;;;;;;;;5093676;28;20032;-72
2021/08/19 14:31:51;;;;;;;12.13;2.35;;;;;;;;;;5093951;28;20524;-73
2021/08/19 14:34:17;;;;;;;3.95;2.40;;;;;;;;;;5093624;28;20493;-72
2021/08/19 14:36:43;;;;;;;4.45;2.50;;;;;;;;;;5093619;28;20082;-75
2021/08/19 14:39:10;;;;;;;10.43;2.88;;;;;;;;;;5093691;28;20020;-77